createdAt,value
2023-04-02T00:01:26.799Z,78.43
2023-04-02T00:06:45.125Z,78.31
2023-04-02T00:11:48.595Z,78.21
2023-04-02T00:16:48.824Z,78.21
2023-04-02T00:21:50.839Z,78.06
2023-04-02T00:26:52.419Z,78.01
2023-04-02T00:31:55.298Z,78.04
2023-04-02T00:36:55.497Z,78.24
2023-04-02T00:42:05.298Z,78.35
2023-04-02T00:47:15.344Z,78.51
2023-04-02T00:52:18.544Z,78.61
2023-04-02T00:57:25.625Z,78.60
2023-04-02T01:02:34.227Z,78.56
2023-04-02T01:07:55.058Z,78.75
2023-04-02T01:13:07.010Z,78.75
2023-04-02T01:18:31.504Z,78.74
2023-04-02T01:23:37.621Z,78.80
2023-04-02T01:29:06.977Z,78.85
2023-04-02T01:34:13.067Z,78.89
2023-04-02T01:39:26.127Z,78.96
2023-04-02T01:44:34.593Z,79.03
2023-04-02T01:49:34.408Z,79.18
2023-04-02T01:54:34.803Z,79.22
2023-04-02T01:59:36.091Z,79.22
2023-04-02T02:04:37.758Z,79.12
2023-04-02T02:09:41.460Z,79.01
2023-04-02T02:14:41.650Z,79.00
2023-04-02T02:19:45.607Z,78.92
2023-04-02T02:24:45.759Z,78.90
2023-04-02T02:29:48.297Z,78.96
2023-04-02T02:34:56.136Z,78.91
2023-04-02T02:40:01.229Z,78.86
2023-04-02T02:45:06.719Z,78.93
2023-04-02T02:50:15.303Z,78.79
2023-04-02T02:55:19.724Z,78.75
2023-04-02T03:00:33.841Z,78.70
2023-04-02T03:05:33.768Z,78.67
2023-04-02T03:10:50.179Z,78.63
2023-04-02T03:16:01.440Z,78.79
2023-04-02T03:21:08.607Z,78.86
2023-04-02T03:26:18.338Z,78.93
2023-04-02T03:31:26.718Z,78.92
2023-04-02T03:36:32.649Z,78.89
2023-04-02T03:41:40.878Z,78.85
2023-04-02T03:46:51.099Z,78.83
2023-04-02T03:52:00.319Z,78.75
2023-04-02T03:57:00.660Z,78.73
2023-04-02T04:02:11.932Z,78.83
2023-04-02T04:07:21.441Z,78.97
2023-04-02T04:12:32.434Z,78.96
2023-04-02T04:17:41.142Z,79.14
2023-04-02T04:22:40.970Z,79.25
2023-04-02T04:28:18.606Z,79.32
2023-04-02T04:33:23.829Z,79.33
2023-04-02T04:38:35.142Z,79.38
2023-04-02T04:43:46.873Z,79.15
2023-04-02T04:48:59.787Z,78.86
2023-04-02T04:54:02.059Z,78.82
2023-04-02T04:59:14.226Z,78.76
2023-04-02T05:04:23.510Z,78.71
2023-04-02T05:09:30.244Z,78.72
2023-04-02T05:14:38.315Z,78.72
2023-04-02T05:19:46.704Z,78.79
2023-04-02T05:25:10.853Z,78.89
2023-04-02T05:30:36.821Z,78.92
2023-04-02T05:35:43.010Z,78.60
2023-04-02T05:40:48.339Z,78.61
2023-04-02T05:45:56.806Z,78.63
2023-04-02T05:51:00.378Z,78.52
2023-04-02T05:56:09.144Z,78.04
2023-04-02T06:01:20.956Z,77.98
2023-04-02T06:06:37.318Z,77.88
2023-04-02T06:11:42.452Z,77.69
2023-04-02T06:16:44.990Z,77.62
2023-04-02T06:21:52.171Z,77.28
2023-04-02T06:27:01.544Z,76.98
2023-04-02T06:32:03.632Z,76.46
2023-04-02T06:37:06.495Z,76.42
2023-04-02T06:42:14.166Z,76.49
2023-04-02T06:47:39.017Z,76.76
2023-04-02T06:52:46.180Z,76.86
2023-04-02T06:57:46.323Z,76.86
2023-04-02T07:02:46.712Z,76.96
2023-04-02T07:07:46.217Z,77.08
2023-04-02T07:12:47.925Z,77.16
2023-04-02T07:17:48.397Z,77.18
2023-04-02T07:22:47.535Z,77.24
2023-04-02T07:27:47.249Z,77.15
2023-04-02T07:32:48.240Z,77.35
2023-04-02T07:37:47.642Z,77.26
2023-04-02T07:42:46.616Z,77.25
2023-04-02T07:47:45.799Z,77.29
2023-04-02T07:52:46.348Z,76.97
2023-04-02T07:57:51.782Z,76.57
2023-04-02T08:02:51.805Z,76.50
2023-04-02T08:07:57.779Z,76.39
2023-04-02T08:12:56.865Z,76.00
2023-04-02T08:17:56.469Z,75.40
2023-04-02T08:22:59.135Z,75.51
2023-04-02T08:27:58.197Z,75.57
2023-04-02T08:32:57.075Z,75.64
2023-04-02T08:37:55.651Z,75.72
2023-04-02T08:43:21.777Z,75.96
2023-04-02T08:48:23.604Z,75.85
2023-04-02T08:53:27.068Z,75.72
2023-04-02T08:58:39.617Z,75.29
2023-04-02T09:03:44.121Z,75.24
2023-04-02T09:08:48.029Z,75.25
2023-04-02T09:13:51.909Z,75.27
2023-04-02T09:18:54.070Z,75.42
2023-04-02T09:23:53.778Z,75.47
2023-04-02T09:28:54.222Z,75.45
2023-04-02T09:33:55.048Z,75.32
2023-04-02T09:39:07.058Z,75.25
2023-04-02T09:44:31.976Z,75.07
2023-04-02T09:49:35.525Z,75.20
2023-04-02T09:54:34.298Z,75.10
2023-04-02T09:59:33.752Z,75.09
2023-04-02T10:04:44.468Z,75.15
2023-04-02T10:09:43.715Z,75.26
2023-04-02T10:14:51.346Z,75.00
2023-04-02T10:19:55.479Z,74.89
2023-04-02T10:24:55.084Z,75.31
2023-04-02T10:30:14.805Z,75.14
2023-04-02T10:35:28.729Z,75.23
2023-04-02T10:40:36.657Z,75.36
2023-04-02T10:45:47.358Z,75.45
2023-04-02T10:50:56.332Z,75.49
2023-04-02T10:56:01.518Z,75.88
2023-04-02T11:01:08.448Z,75.85
2023-04-02T11:06:17.575Z,75.92
2023-04-02T11:11:22.711Z,75.99
2023-04-02T11:16:22.466Z,76.07
2023-04-02T11:21:57.131Z,76.08
2023-04-02T11:27:07.860Z,76.19
2023-04-02T11:32:42.779Z,76.71
2023-04-02T11:37:45.723Z,76.91
2023-04-02T11:42:47.415Z,77.13
2023-04-02T11:48:24.409Z,76.96
2023-04-02T11:53:31.825Z,77.07
2023-04-02T11:58:47.356Z,77.24
2023-04-02T12:04:15.985Z,77.45
2023-04-02T12:09:24.696Z,77.18
2023-04-02T12:14:50.132Z,77.25
2023-04-02T12:19:55.769Z,76.96
2023-04-02T12:24:59.743Z,76.96
2023-04-02T12:30:16.180Z,77.00
2023-04-02T12:35:36.103Z,77.03
2023-04-02T12:40:35.232Z,77.15
2023-04-02T12:45:37.517Z,76.88
2023-04-02T12:50:37.600Z,76.57
2023-04-02T12:55:38.583Z,76.35
2023-04-02T13:00:42.186Z,76.04
2023-04-02T13:05:46.002Z,75.56
2023-04-02T13:10:46.319Z,75.20
2023-04-02T13:15:46.403Z,75.51
2023-04-02T13:20:56.443Z,75.72
2023-04-02T13:25:56.311Z,75.32
2023-04-02T13:30:55.811Z,75.50
2023-04-02T13:35:55.316Z,75.82
2023-04-02T13:40:54.912Z,76.23
2023-04-02T13:46:00.173Z,76.50
2023-04-02T13:50:59.728Z,76.64
2023-04-02T13:55:59.680Z,76.81
2023-04-02T14:00:59.099Z,77.13
2023-04-02T14:06:09.698Z,77.40
2023-04-02T14:11:29.743Z,77.57
2023-04-02T14:16:59.040Z,77.47
2023-04-02T14:22:18.320Z,77.68
2023-04-02T14:27:32.990Z,78.28
2023-04-02T14:32:45.304Z,78.62
2023-04-02T14:37:58.019Z,78.86
2023-04-02T14:43:07.069Z,78.96
2023-04-02T14:48:14.947Z,79.06
2023-04-02T14:53:23.981Z,79.14
2023-04-02T14:58:32.472Z,79.14
2023-04-02T15:03:38.869Z,79.13
2023-04-02T15:08:52.267Z,79.15
2023-04-02T15:14:03.975Z,79.43
2023-04-02T15:19:05.844Z,79.68
2023-04-02T15:24:17.008Z,80.01
2023-04-02T15:29:41.363Z,80.21
2023-04-02T15:34:49.219Z,80.46
2023-04-02T15:40:01.328Z,80.72
2023-04-02T15:45:31.197Z,80.95
2023-04-02T15:50:48.302Z,81.17
2023-04-02T15:55:56.378Z,81.24
2023-04-02T16:01:13.458Z,81.46
2023-04-02T16:06:32.627Z,81.61
2023-04-02T16:11:32.075Z,81.62
2023-04-02T16:16:37.544Z,81.64
2023-04-02T16:21:44.420Z,81.58
2023-04-02T16:27:00.909Z,81.68
2023-04-02T16:32:12.216Z,81.74
2023-04-02T16:37:24.251Z,81.88
2023-04-02T16:42:36.797Z,82.06
2023-04-02T16:47:57.980Z,82.22
2023-04-02T16:53:11.709Z,82.39
2023-04-02T16:58:31.518Z,82.39
2023-04-02T17:03:57.498Z,82.40
2023-04-02T17:09:09.038Z,82.49
2023-04-02T17:14:18.265Z,82.58
2023-04-02T17:19:21.683Z,82.65
2023-04-02T17:24:28.116Z,82.74
2023-04-02T17:29:36.253Z,82.80
2023-04-02T17:34:35.351Z,82.83
2023-04-02T17:39:47.507Z,82.87
2023-04-02T17:45:06.883Z,82.86
2023-04-02T17:50:35.018Z,82.89
2023-04-02T17:55:50.382Z,82.93
2023-04-02T18:01:08.140Z,82.92
2023-04-02T18:06:15.721Z,82.87
2023-04-02T18:11:31.156Z,82.80
2023-04-02T18:16:49.117Z,82.78
2023-04-02T18:22:00.277Z,82.76
2023-04-02T18:27:20.254Z,82.51
2023-04-02T18:32:43.972Z,82.40
2023-04-02T18:38:02.222Z,82.27
2023-04-02T18:43:12.624Z,82.20
2023-04-02T18:48:29.812Z,82.07
2023-04-02T18:53:35.109Z,81.90
2023-04-02T18:58:52.144Z,82.12
2023-04-02T19:03:59.730Z,82.08
2023-04-02T19:09:08.104Z,82.13
2023-04-02T19:14:15.686Z,82.18
2023-04-02T19:19:22.887Z,82.20
2023-04-02T19:24:47.669Z,82.08
2023-04-02T19:30:05.399Z,81.85
2023-04-02T19:35:16.834Z,81.60
2023-04-02T19:40:30.925Z,81.28
2023-04-02T19:45:43.223Z,81.04
2023-04-02T19:50:42.653Z,80.89
2023-04-02T19:55:42.679Z,80.61
2023-04-02T20:00:42.119Z,80.67
2023-04-02T20:05:41.067Z,80.79
2023-04-02T20:10:40.184Z,80.74
2023-04-02T20:15:40.289Z,80.32
2023-04-02T20:20:39.568Z,80.06
2023-04-02T20:25:39.078Z,79.72
2023-04-02T20:30:38.347Z,79.31
2023-04-02T20:35:38.072Z,78.85
2023-04-02T20:40:40.105Z,78.28
2023-04-02T20:45:40.095Z,77.78
2023-04-02T20:50:40.416Z,77.17
2023-04-02T20:55:39.864Z,76.88
2023-04-02T21:00:42.298Z,76.58
2023-04-02T21:05:48.934Z,75.89
2023-04-02T21:10:47.584Z,74.83
2023-04-02T21:15:46.978Z,73.86
2023-04-02T21:20:45.557Z,73.12
2023-04-02T21:25:45.301Z,72.22
2023-04-02T21:30:44.296Z,71.82
2023-04-02T21:35:43.619Z,71.50
2023-04-02T21:40:44.099Z,71.09
2023-04-02T21:45:43.137Z,70.94
2023-04-02T21:50:44.603Z,70.32
2023-04-02T21:55:45.410Z,69.62
2023-04-02T22:00:45.014Z,68.72
2023-04-02T22:05:44.295Z,68.79
2023-04-02T22:10:43.450Z,68.58
2023-04-02T22:15:43.514Z,68.32
2023-04-02T22:20:44.225Z,67.93
2023-04-02T22:25:43.043Z,67.24
2023-04-02T22:30:42.346Z,66.88
2023-04-02T22:35:41.617Z,66.65
2023-04-02T22:40:41.019Z,66.29
2023-04-02T22:45:39.655Z,65.69
2023-04-02T22:50:38.900Z,65.69
2023-04-02T22:55:38.723Z,65.40
2023-04-02T23:00:39.396Z,65.52
2023-04-02T23:05:42.635Z,65.62
2023-04-02T23:10:42.195Z,65.75
2023-04-02T23:15:41.531Z,65.61
2023-04-02T23:20:41.794Z,65.29
2023-04-02T23:25:43.280Z,65.24
2023-04-02T23:30:43.257Z,64.54
2023-04-02T23:35:42.403Z,64.72
2023-04-02T23:40:44.942Z,64.79
2023-04-02T23:45:49.461Z,65.01
2023-04-02T23:50:49.304Z,65.14
2023-04-02T23:55:49.099Z,65.25
